EBCI - Charleroi/Gosselies, Belgium
Distance de la station: NE 18km
Mise à jour: 29/09/2022 16:50
quelques nuages
quelques nuages
 Wind from varies
Vent: varies 4 km/h
Température: 13°C
Point de rosée: 6°C
Humidité: 63%
Baromètre: 1004 hPa
Ciel: quelques nuages
Visibilité: 10 km
Détails du ciel: quelques nuages 914 m
2022/09/29 14:50 EBCI 291450Z VRB02KT 9999 FEW030 13/06 Q1004 NOSIG
EBFS - Florennes, Belgium
Distance de la station: ESE 31km
Mise à jour: 29/09/2022 16:55
partiellement nuageux
partiellement nuageux
 Wind from NO
Vent: NO 6 km/h
Température: 12°C
Point de rosée: 6°C
Humidité: 67%
Baromètre: 1003 hPa
Ciel: partiellement nuageux
Visibilité: 10 km
Détails du ciel: quelques nuages 975 m
partiellement nuageux 1524 m
2022/09/29 14:55 EBFS 291455Z 31003KT 9999 FEW032 SCT050 12/06 Q1003 BLU BLU
EBCV - Chievres, Belgium
Distance de la station: NO 40km
Mise à jour: 29/09/2022 16:55
couvert
couvert
 Wind from NNO
Vent: NNO 9 km/h
Température: 13°C
Point de rosée: 8°C
Humidité: 72%
Baromètre: 1004 hPa
Ciel: couvert
Visibilité: 10 km
Détails du ciel: couvert 1372 m
2022/09/29 14:55 EBCV 291455Z AUTO 34005KT 9999 OVC045/// 13/08 Q1004 BLU
 
EBBE - Beauvechain, Belgium
Distance de la station: NE 57km
Mise à jour: 29/09/2022 16:55
partiellement nuageux
partiellement nuageux
 Wind from O
Vent: O 6 km/h
Température: 14°C
Point de rosée: 7°C
Humidité: 63%
Baromètre: 1003 hPa
Ciel: partiellement nuageux
Visibilité: 10 km
Détails du ciel: quelques nuages 1158 m
partiellement nuageux 1829 m
2022/09/29 14:55 EBBE 291455Z 26003KT 9999 FEW038 SCT060 14/07 Q1003 BLU BLU
EBBR - Brussels National, Belgium
Distance de la station: NNE 63km
Mise à jour: 29/09/2022 16:50
quelques nuages
quelques nuages
 Wind from varies
Vent: varies 2 km/h
Température: 15°C
Point de rosée: 6°C
Humidité: 55%
Baromètre: 1004 hPa
Ciel: quelques nuages
Visibilité: 10 km
Détails du ciel: quelques nuages 1158 m
2022/09/29 14:50 EBBR 291450Z VRB01KT 9999 FEW038 15/06 Q1004 NOSIG
LFQI - Cambrai/Epinoy, France
Distance de la station: O 82km
Mise à jour: 29/06/2012 12:30
NOT Current

 Wind from SO
Vent: SO 17 km/h
Température: 18°C
Point de rosée: 14°C
Humidité: 78%
Baromètre: 1009 hPa
2012/06/29 10:30 LFQI 291030Z AUTO 22009KT //// // ///////// 18/14 Q1009
 
LFQQ - Lille/Lesquin, France
Distance de la station: ONO 86km
Mise à jour: 29/09/2022 17:00
Thunderstorm
Thunderstorm
 Wind from NNE
Vent: NNE 15 km/h
Température: 14°C
Point de rosée: 8°C
Humidité: 67%
Baromètre: 1004 hPa
Ciel: Thunderstorm
Visibilité: 10 km
Détails du ciel: quelques nuages 1494 m
partiellement nuageux 1829 m
couvert 2134 m
2022/09/29 15:00 LFQQ 291500Z AUTO 02008KT 9999 FEW049/// SCT060/// OVC070/// ///TCU 14/08 Q1004 TEMPO 4000 SHRA BKN025CB
EBLG - Bierset/Liege, Belgium
Distance de la station: ENE 89km
Mise à jour: 29/09/2022 16:50
quelques nuages
quelques nuages
 Wind from NNO
Vent: NNO 6 km/h
Température: 14°C
Point de rosée: 2°C
Humidité: 44%
Baromètre: 1003 hPa
Ciel: quelques nuages
Visibilité: 10 km
Détails du ciel: quelques nuages 1402 m
2022/09/29 14:50 EBLG 291450Z 34003KT 290V010 9999 FEW046 14/02 Q1003 NOSIG
EBDT - Schaffen, Belgium
Distance de la station: NE 93km
Mise à jour: 29/09/2022 16:55
partiellement nuageux
partiellement nuageux
 Wind from varies
Vent: varies 4 km/h
Température: 14°C
Point de rosée: 6°C
Humidité: 59%
Baromètre: 1003 hPa
Ciel: partiellement nuageux
Visibilité: 10 km
Détails du ciel: partiellement nuageux 1128 m
partiellement nuageux 1585 m
2022/09/29 14:55 EBDT 291455Z VRB02KT 9999 SCT037 SCT052 14/06 Q1003 BLU BLU
 
EBAW - Antwerp/Deurne, Belgium
Distance de la station: N 96km
Mise à jour: 29/09/2022 16:50
quelques nuages
quelques nuages
 Wind from SO
Vent: SO 7 km/h
Température: 14°C
Point de rosée: 6°C
Humidité: 59%
Baromètre: 1003 hPa
Ciel: quelques nuages
Visibilité: 10 km
Détails du ciel: quelques nuages 1463 m
2022/09/29 14:50 EBAW 291450Z AUTO 23004KT 9999 // FEW048/// 14/06 Q1003
LFAQ - Bray, France
Distance de la station: OSO 119km
Mise à jour: 29/09/2022 17:00
couvert
couvert
 Wind from NNE
Vent: NNE 17 km/h
Température: 13°C
Point de rosée: 7°C
Humidité: 67%
Baromètre: 1004 hPa
Ciel: couvert
Visibilité: 10 km
Détails du ciel: quelques nuages 1494 m
plutôt nuageux 2134 m
couvert 2621 m
2022/09/29 15:00 LFAQ 291500Z AUTO 03009KT 9999 FEW049 BKN070 OVC086 13/07 Q1004 TEMPO 4000 SHRA BKN025TCU
LFSR - Reims/Champagne, France
Distance de la station: S 120km
Mise à jour: 16/04/2012 09:00
NOT Current
partiellement nuageux
partiellement nuageux
 Wind from N
Vent: N 17 km/h
Température: 4°C
Température ressentie: 0°C
Point de rosée: 0°C
Humidité: 75%
Baromètre: 1022 hPa
Ciel: partiellement nuageux
Visibilité: 10 km
2012/04/16 07:00 LFSR 160700Z AUTO 01009KT 340V070 9999 NSC 04/00 Q1022
 
EHWO - Woensdrecht, Netherlands
Distance de la station: N 122km
Mise à jour: 29/09/2022 16:55
partiellement nuageux
partiellement nuageux
 Wind from ONO
Vent: ONO 7 km/h
Température: 14°C
Point de rosée: 8°C
Humidité: 67%
Baromètre: 1003 hPa
Ciel: partiellement nuageux
Visibilité: 10 km
Détails du ciel: partiellement nuageux 7010 m
2022/09/29 14:55 EHWO 291455Z AUTO 29004KT 250V320 9999 SCT230 14/08 Q1003 BLU
EHBK - Zuid-Limburg, Netherlands
Distance de la station: ENE 123km
Mise à jour: 29/09/2022 16:55
clair
clair
 Wind from varies
Vent: varies 6 km/h
Température: 15°C
Point de rosée: 4°C
Humidité: 48%
Baromètre: 1003 hPa
Ciel: clair
Visibilité: 10 km
2022/09/29 14:55 EHBK 291455Z AUTO VRB03KT 9999 NCD 15/04 Q1003 NOSIG
EBBL - Kleine-Brogel, Belgium
Distance de la station: NE 124km
Mise à jour: 29/09/2022 16:55
partiellement nuageux
partiellement nuageux
 Wind from varies
Vent: varies 4 km/h
Température: 15°C
Point de rosée: 5°C
Humidité: 51%
Baromètre: 1003 hPa
Ciel: partiellement nuageux
Visibilité: 10 km
Détails du ciel: quelques nuages 1676 m
partiellement nuageux 1890 m
2022/09/29 14:55 EBBL 291455Z VRB02KT 9999 FEW055 SCT062 15/05 Q1003 BLU BLU
 
EBLB - Elsenborn, Belgium
Distance de la station: E 135km
Mise à jour: 29/09/2022 16:55
plutôt nuageux
plutôt nuageux
 Wind from NE
Vent: NE 7 km/h
Température: 10°C
Température ressentie: 9°C
Point de rosée: 4°C
Humidité: 67%
Baromètre: 1003 hPa
Ciel: plutôt nuageux
Visibilité: 10 km
Détails du ciel: plutôt nuageux 2469 m
2022/09/29 14:55 EBLB 291455Z AUTO 04004KT 9999 BKN081/// 10/04 Q1003 BLU
EBOS - Oostende Airport, Belgium
Distance de la station: NO 136km
Mise à jour: 29/09/2022 16:50
quelques nuages
quelques nuages
 Wind from NNO
Vent: NNO 15 km/h
Température: 14°C
Point de rosée: 7°C
Humidité: 63%
Baromètre: 1004 hPa
Ciel: quelques nuages
Visibilité: 10 km
Détails du ciel: quelques nuages 914 m
2022/09/29 14:50 EBOS 291450Z 33008KT 9999 FEW030TCU 14/07 Q1004 NOSIG
EBFN - Koksijde, Belgium
Distance de la station: NO 140km
Mise à jour: 29/09/2022 16:55
partiellement nuageux
partiellement nuageux
 Wind from NNO
Vent: NNO 13 km/h
Température: 15°C
Point de rosée: 7°C
Humidité: 59%
Baromètre: 1004 hPa
Ciel: partiellement nuageux
Visibilité: 10 km
Détails du ciel: quelques nuages 1067 m
partiellement nuageux 5486 m
2022/09/29 14:55 EBFN 291455Z 34007KT 9999 FEW035 SCT180 15/07 Q1004 BLU BLU
 
ETNG - Geilenkirchen, Germany
Distance de la station: ENE 142km
Mise à jour: 29/09/2022 16:50
clair
clair
 Wind from NE
Vent: NE 4 km/h
Température: 16°C
Point de rosée: 5°C
Humidité: 48%
Baromètre: 1003 hPa
Résumé: clair
Visibilité: greater than 10 km
2022/09/29 14:50 ETNG 291450Z 04002KT CAVOK 16/05 Q1003 NOSIG
EHGR - Gilze-Rijen, Netherlands
Distance de la station: NNE 143km
Mise à jour: 29/09/2022 16:55
plutôt nuageux
plutôt nuageux
 Wind from N
Vent: N 9 km/h
Température: 15°C
Point de rosée: 7°C
Humidité: 59%
Baromètre: 1003 hPa
Ciel: plutôt nuageux
Visibilité: 10 km
Détails du ciel: plutôt nuageux 7010 m
2022/09/29 14:55 EHGR 291455Z AUTO 35005KT 280V050 9999 BKN230 15/07 Q1003 BLU
EHEH - Eindhoven, Netherlands
Distance de la station: NNE 147km
Mise à jour: 29/09/2022 16:55
quelques nuages
quelques nuages
 Wind from varies
Vent: varies 4 km/h
Température: 15°C
Point de rosée: 6°C
Humidité: 55%
Baromètre: 1003 hPa
Ciel: quelques nuages
Visibilité: 10 km
Détails du ciel: quelques nuages 2347 m
2022/09/29 14:55 EHEH 291455Z AUTO VRB02KT 9999 FEW077 15/06 Q1003 BLU NOSIG
 
ELLX - Luxembourg, Luxembourg
Distance de la station: ESE 162km
Mise à jour: 29/09/2022 16:50
partiellement nuageux
partiellement nuageux
 Wind from E
Vent: E 9 km/h
Température: 10°C
Température ressentie: 9°C
Point de rosée: 7°C
Humidité: 82%
Baromètre: 1003 hPa
Ciel: partiellement nuageux
Visibilité: 10 km
Détails du ciel: quelques nuages 610 m
partiellement nuageux 762 m
2022/09/29 14:50 ELLX 291450Z 09005KT 060V140 9999 FEW020CB SCT025 10/07 Q1003 NOSIG
EHVK - Volkel, Netherlands
Distance de la station: NE 174km
Mise à jour: 29/09/2022 16:55
plutôt nuageux
plutôt nuageux
 Wind from varies
Vent: varies 2 km/h
Température: 15°C
Point de rosée: 5°C
Humidité: 51%
Baromètre: 1003 hPa
Ciel: plutôt nuageux
Visibilité: 10 km
Détails du ciel: plutôt nuageux 2012 m
2022/09/29 14:55 EHVK 291455Z AUTO VRB01KT 9999 BKN066 15/05 Q1003 BLU
LFOK - Chalons/Vatry, France
Distance de la station: S 174km
Mise à jour: 29/09/2022 17:00
Thunderstorm
Thunderstorm
 Wind from varies
Vent: varies 4 km/h
Température: 14°C
Point de rosée: 9°C
Humidité: 72%
Baromètre: 1003 hPa
Ciel: Thunderstorm
Visibilité: 10 km
2022/09/29 15:00 LFOK 291500Z AUTO VRB02KT 9999 ///TCU 14/09 Q1003 BECMG SCT035
Script from Saratoga-Weather.org